Time;durP1;ratioP1;P1;durP2;ratioP2;P2;SDS_P1;SDS_P2;PMS_P1;PMS_P2;Temp;Humidity;BMP_temperature;BMP_pressure;BME280_temperature;BME280_humidity;BME280_pressure;Samples;Min_cycle;Max_cycle;Signal;HPM_P1;HPM_P2
2022/12/24 00:01:47;;;;;;;15.77;10.57;;;;;;;;;;4946095;29;20443;-74
2022/12/24 00:04:39;;;;;;;17.10;10.70;;;;;;;;;;4952950;29;20443;-74
2022/12/24 00:07:32;;;;;;;18.27;11.37;;;;;;;;;;4947656;28;20952;-74
2022/12/24 00:10:27;;;;;;;15.73;11.07;;;;;;;;;;4942890;29;20633;-75
2022/12/24 00:13:20;;;;;;;19.87;12.27;;;;;;;;;;4953525;29;20444;-74
2022/12/24 00:16:14;;;;;;;16.40;10.77;;;;;;;;;;4941181;28;20456;-75
2022/12/24 00:19:04;;;;;;;15.40;9.70;;;;;;;;;;4945789;28;20479;-75
2022/12/24 00:21:55;;;;;;;16.70;10.17;;;;;;;;;;4943237;28;20559;-75
2022/12/24 00:24:45;;;;;;;16.83;10.03;;;;;;;;;;4949722;29;20448;-75
2022/12/24 00:27:35;;;;;;;17.80;11.27;;;;;;;;;;4951965;28;20783;-74
2022/12/24 00:30:27;;;;;;;18.97;10.50;;;;;;;;;;4944895;29;20475;-75
2022/12/24 00:33:19;;;;;;;21.10;10.60;;;;;;;;;;4942127;29;20474;-75
2022/12/24 00:36:12;;;;;;;19.30;10.77;;;;;;;;;;4941358;29;20998;-74
2022/12/24 00:39:00;;;;;;;19.43;10.30;;;;;;;;;;4948432;28;20865;-74
2022/12/24 00:41:49;;;;;;;17.50;10.20;;;;;;;;;;4949134;29;20444;-74
2022/12/24 00:44:45;;;;;;;20.47;11.13;;;;;;;;;;4951339;29;20467;-74
2022/12/24 00:47:40;;;;;;;14.07;9.70;;;;;;;;;;4952431;29;20472;-75
2022/12/24 00:50:33;;;;;;;16.30;10.17;;;;;;;;;;4968571;23;20951;-76
2022/12/24 00:53:22;;;;;;;18.10;10.27;;;;;;;;;;4969577;28;20534;-74
2022/12/24 00:56:11;;;;;;;18.27;10.50;;;;;;;;;;4970720;28;20462;-75
2022/12/24 00:59:02;;;;;;;16.67;10.47;;;;;;;;;;4970254;28;20489;-75
2022/12/24 01:01:57;;;;;;;21.10;11.27;;;;;;;;;;4944625;29;20504;-75
2022/12/24 01:07:56;;;;;;;20.23;10.80;;;;;;;;;;4952152;28;20464;-76
2022/12/24 01:10:50;;;;;;;18.13;10.37;;;;;;;;;;4944287;29;20464;-74
2022/12/24 01:13:40;;;;;;;17.67;12.07;;;;;;;;;;4953006;29;21010;-74
2022/12/24 01:16:29;;;;;;;20.50;11.80;;;;;;;;;;4956961;29;20455;-75
2022/12/24 01:19:18;;;;;;;19.07;10.60;;;;;;;;;;4954408;28;20551;-75
2022/12/24 01:22:14;;;;;;;17.43;11.00;;;;;;;;;;4942032;29;20464;-75
2022/12/24 01:25:13;;;;;;;15.60;10.00;;;;;;;;;;4953760;29;20451;-74
2022/12/24 01:28:03;;;;;;;17.57;10.20;;;;;;;;;;4954090;28;20490;-74
2022/12/24 01:30:53;;;;;;;15.83;10.30;;;;;;;;;;4952990;29;20479;-75
2022/12/24 01:33:47;;;;;;;16.47;10.40;;;;;;;;;;4946050;29;20448;-74
2022/12/24 01:36:41;;;;;;;19.83;11.27;;;;;;;;;;4953901;29;20471;-76
2022/12/24 01:39:33;;;;;;;17.93;10.00;;;;;;;;;;4946615;29;20494;-74
2022/12/24 01:45:47;;;;;;;18.37;9.80;;;;;;;;;;4938516;29;20458;-74
2022/12/24 01:48:40;;;;;;;16.23;9.03;;;;;;;;;;4952075;29;20479;-74
2022/12/24 01:51:31;;;;;;;15.33;10.47;;;;;;;;;;4948701;28;20483;-74
2022/12/24 01:54:21;;;;;;;17.47;9.80;;;;;;;;;;4954351;29;20590;-74
2022/12/24 01:57:18;;;;;;;16.27;10.33;;;;;;;;;;4942870;28;20448;-74
2022/12/24 02:00:13;;;;;;;15.20;10.70;;;;;;;;;;4945418;29;20566;-74
2022/12/24 02:03:10;;;;;;;18.73;10.33;;;;;;;;;;4942285;28;20467;-74
2022/12/24 02:06:00;;;;;;;14.83;9.97;;;;;;;;;;4950454;28;20498;-75
2022/12/24 02:08:49;;;;;;;15.17;10.07;;;;;;;;;;4949146;28;21201;-75
2022/12/24 02:11:43;;;;;;;15.93;8.97;;;;;;;;;;4956239;28;20475;-75
2022/12/24 02:14:41;;;;;;;14.23;9.20;;;;;;;;;;4946580;28;20458;-74
2022/12/24 02:17:32;;;;;;;19.10;8.80;;;;;;;;;;4951812;29;20435;-74
2022/12/24 02:20:39;;;;;;;12.90;8.63;;;;;;;;;;4954424;29;20490;-78
2022/12/24 02:23:47;;;;;;;14.97;9.17;;;;;;;;;;4945372;28;20459;-76
2022/12/24 02:26:47;;;;;;;15.23;9.57;;;;;;;;;;4949749;29;20447;-75
2022/12/24 02:29:58;;;;;;;16.03;9.07;;;;;;;;;;4946996;28;20858;-75
2022/12/24 02:32:56;;;;;;;14.90;8.70;;;;;;;;;;4948086;28;20466;-74
2022/12/24 02:35:49;;;;;;;14.30;8.93;;;;;;;;;;4953945;29;20459;-74
2022/12/24 02:38:42;;;;;;;17.00;8.90;;;;;;;;;;4951303;28;20566;-76
2022/12/24 02:42:04;;;;;;;13.63;9.30;;;;;;;;;;4946457;29;20479;-75
2022/12/24 02:44:51;;;;;;;16.00;8.63;;;;;;;;;;4944610;29;20455;-75
2022/12/24 02:47:43;;;;;;;14.87;8.57;;;;;;;;;;4951694;28;20863;-74
2022/12/24 02:50:34;;;;;;;13.33;8.93;;;;;;;;;;4952318;29;20478;-75
2022/12/24 02:53:26;;;;;;;14.50;8.17;;;;;;;;;;4944219;28;20459;-74
2022/12/24 02:56:26;;;;;;;12.43;6.93;;;;;;;;;;4944706;29;20451;-75
2022/12/24 02:59:24;;;;;;;15.07;8.77;;;;;;;;;;4954067;29;20478;-74
2022/12/24 03:02:25;;;;;;;13.43;9.17;;;;;;;;;;4949997;28;20987;-74
2022/12/24 03:05:21;;;;;;;15.30;9.67;;;;;;;;;;4956680;29;20450;-74
2022/12/24 03:08:14;;;;;;;12.10;8.33;;;;;;;;;;4957966;28;20471;-74
2022/12/24 03:11:06;;;;;;;11.67;7.60;;;;;;;;;;4955627;29;20483;-76
2022/12/24 03:13:55;;;;;;;13.43;8.50;;;;;;;;;;4956350;29;20798;-74
2022/12/24 03:16:48;;;;;;;11.47;7.90;;;;;;;;;;4956361;29;20455;-74
2022/12/24 03:19:41;;;;;;;11.00;8.20;;;;;;;;;;4955919;28;20479;-75
2022/12/24 03:22:31;;;;;;;10.20;7.33;;;;;;;;;;4947840;29;20462;-74
2022/12/24 03:25:24;;;;;;;11.50;8.03;;;;;;;;;;4948088;29;21025;-74
2022/12/24 03:28:16;;;;;;;11.43;7.77;;;;;;;;;;4954705;29;20485;-74
2022/12/24 03:31:09;;;;;;;14.20;7.73;;;;;;;;;;4949721;29;20479;-75
2022/12/24 03:33:58;;;;;;;12.50;7.53;;;;;;;;;;4946556;29;21087;-74
2022/12/24 03:36:49;;;;;;;13.60;8.50;;;;;;;;;;4955218;29;20451;-74
2022/12/24 03:39:39;;;;;;;13.40;8.33;;;;;;;;;;4954027;28;20479;-75
2022/12/24 03:42:37;;;;;;;13.17;8.73;;;;;;;;;;4957713;29;20456;-75
2022/12/24 03:45:32;;;;;;;11.37;7.97;;;;;;;;;;4953541;29;20462;-74
2022/12/24 03:48:21;;;;;;;12.43;7.67;;;;;;;;;;4957098;29;20855;-74
2022/12/24 03:51:18;;;;;;;11.30;7.70;;;;;;;;;;4956313;29;20519;-75
2022/12/24 03:54:11;;;;;;;11.40;7.70;;;;;;;;;;4956975;29;20473;-76
2022/12/24 03:57:01;;;;;;;12.27;8.13;;;;;;;;;;4952627;29;20829;-75
2022/12/24 03:59:53;;;;;;;12.30;8.57;;;;;;;;;;4954304;29;20483;-75
2022/12/24 04:02:46;;;;;;;10.43;7.40;;;;;;;;;;4955504;29;20455;-74
2022/12/24 04:05:42;;;;;;;9.63;6.87;;;;;;;;;;4951281;29;20459;-74
2022/12/24 04:08:30;;;;;;;10.57;7.07;;;;;;;;;;4955544;28;20483;-76
2022/12/24 04:11:21;;;;;;;11.07;7.43;;;;;;;;;;4955339;29;20852;-74
2022/12/24 04:14:17;;;;;;;10.67;6.80;;;;;;;;;;4953760;28;20479;-77
2022/12/24 04:17:08;;;;;;;10.00;6.77;;;;;;;;;;4955520;29;20509;-74
2022/12/24 04:19:57;;;;;;;9.47;6.90;;;;;;;;;;4944876;29;20505;-76
2022/12/24 04:22:46;;;;;;;7.57;5.47;;;;;;;;;;4953563;29;20455;-77
2022/12/24 04:25:44;;;;;;;11.13;7.77;;;;;;;;;;4955083;29;20475;-74
2022/12/24 04:28:35;;;;;;;10.10;7.10;;;;;;;;;;4950369;29;20472;-77
2022/12/24 04:31:41;;;;;;;10.10;6.37;;;;;;;;;;4943169;29;20475;-75
2022/12/24 04:34:32;;;;;;;9.67;6.50;;;;;;;;;;4951027;29;20454;-75
2022/12/24 04:37:20;;;;;;;10.73;6.20;;;;;;;;;;4955816;29;20580;-75
2022/12/24 04:40:12;;;;;;;8.87;5.93;;;;;;;;;;4948078;29;20477;-75
2022/12/24 04:43:02;;;;;;;10.67;6.50;;;;;;;;;;4951934;29;20482;-75
2022/12/24 04:45:51;;;;;;;9.83;6.30;;;;;;;;;;4952233;29;20838;-76
2022/12/24 04:48:45;;;;;;;8.80;6.47;;;;;;;;;;4951214;28;20468;-76
2022/12/24 04:51:34;;;;;;;8.33;6.30;;;;;;;;;;4949251;29;20486;-76
2022/12/24 04:54:23;;;;;;;11.07;6.30;;;;;;;;;;4952571;28;20852;-77
2022/12/24 04:57:12;;;;;;;7.17;5.30;;;;;;;;;;4955502;29;20447;-75
2022/12/24 05:00:05;;;;;;;11.13;7.00;;;;;;;;;;4948999;28;20491;-75
2022/12/24 05:02:58;;;;;;;8.80;6.70;;;;;;;;;;4947336;28;20460;-75
2022/12/24 05:05:48;;;;;;;8.80;6.50;;;;;;;;;;4954425;29;20971;-75
2022/12/24 05:08:48;;;;;;;10.50;7.10;;;;;;;;;;4955448;28;21009;-75
2022/12/24 05:11:36;;;;;;;8.67;6.83;;;;;;;;;;4950906;28;20996;-75
2022/12/24 05:14:25;;;;;;;10.67;7.10;;;;;;;;;;4954746;29;20451;-75
2022/12/24 05:17:16;;;;;;;10.37;6.87;;;;;;;;;;4954391;29;20961;-75
2022/12/24 05:20:09;;;;;;;11.13;7.00;;;;;;;;;;4951412;29;20554;-75
2022/12/24 05:26:23;;;;;;;10.33;7.03;;;;;;;;;;4953451;28;20443;-76
2022/12/24 05:29:19;;;;;;;7.57;5.67;;;;;;;;;;4952911;28;20479;-75
2022/12/24 05:32:07;;;;;;;10.27;7.20;;;;;;;;;;4944313;28;20838;-75
2022/12/24 05:34:57;;;;;;;9.53;6.83;;;;;;;;;;4954592;29;20546;-75
2022/12/24 05:37:46;;;;;;;11.20;7.20;;;;;;;;;;4954202;28;20454;-75
2022/12/24 05:40:37;;;;;;;11.27;7.97;;;;;;;;;;4952833;28;20575;-75
2022/12/24 05:43:26;;;;;;;11.27;7.73;;;;;;;;;;4954524;29;20447;-75
2022/12/24 05:46:22;;;;;;;11.37;6.40;;;;;;;;;;4955253;29;20972;-75
2022/12/24 05:49:12;;;;;;;10.33;6.43;;;;;;;;;;4952364;28;20505;-76
2022/12/24 05:52:01;;;;;;;9.10;6.13;;;;;;;;;;4946208;29;20607;-75
2022/12/24 05:54:50;;;;;;;10.47;7.70;;;;;;;;;;4951718;28;20463;-75
2022/12/24 05:57:45;;;;;;;11.40;7.30;;;;;;;;;;4953331;29;20454;-75
2022/12/24 06:00:34;;;;;;;10.00;6.80;;;;;;;;;;4953870;29;21038;-75
2022/12/24 06:03:23;;;;;;;12.33;7.77;;;;;;;;;;4949178;29;20447;-78
2022/12/24 06:06:13;;;;;;;12.37;7.73;;;;;;;;;;4954470;29;20447;-77
2022/12/24 06:09:11;;;;;;;8.97;6.03;;;;;;;;;;4952442;28;20468;-75
2022/12/24 06:12:03;;;;;;;8.67;6.90;;;;;;;;;;4951266;29;21018;-75
2022/12/24 06:14:53;;;;;;;8.73;5.90;;;;;;;;;;4943701;29;20464;-75
2022/12/24 06:17:41;;;;;;;9.60;6.63;;;;;;;;;;4953220;28;20456;-75
2022/12/24 06:20:40;;;;;;;9.97;6.53;;;;;;;;;;4948394;29;21066;-75
2022/12/24 06:23:32;;;;;;;8.90;6.50;;;;;;;;;;4952920;29;20963;-75
2022/12/24 06:26:23;;;;;;;9.43;6.40;;;;;;;;;;4955063;29;20454;-75
2022/12/24 06:29:13;;;;;;;8.63;6.80;;;;;;;;;;4945994;29;20476;-74
2022/12/24 06:32:03;;;;;;;8.43;5.83;;;;;;;;;;4952312;29;20450;-76
2022/12/24 06:34:55;;;;;;;9.87;6.63;;;;;;;;;;4953992;29;20455;-75
2022/12/24 06:37:43;;;;;;;7.60;5.83;;;;;;;;;;4951904;28;20983;-75
2022/12/24 06:40:39;;;;;;;8.17;5.70;;;;;;;;;;4951481;29;20506;-75
2022/12/24 06:43:28;;;;;;;9.90;6.23;;;;;;;;;;4956709;29;20467;-75
2022/12/24 06:46:21;;;;;;;8.33;5.67;;;;;;;;;;4956695;29;20462;-77
2022/12/24 06:49:12;;;;;;;8.30;6.00;;;;;;;;;;4955434;28;20505;-74
2022/12/24 06:52:04;;;;;;;7.27;5.47;;;;;;;;;;4946986;29;20432;-73
2022/12/24 06:54:52;;;;;;;8.43;6.63;;;;;;;;;;4956697;28;20503;-75
2022/12/24 06:57:47;;;;;;;8.53;5.67;;;;;;;;;;4956732;28;20451;-72
2022/12/24 07:00:39;;;;;;;5.60;4.80;;;;;;;;;;4979600;23;20496;-75
2022/12/24 07:03:31;;;;;;;6.50;5.07;;;;;;;;;;4986858;28;20452;-75
2022/12/24 07:06:29;;;;;;;6.53;5.10;;;;;;;;;;4992882;28;20462;-75
2022/12/24 07:09:18;;;;;;;6.33;5.07;;;;;;;;;;4989767;28;20462;-75
2022/12/24 07:12:06;;;;;;;7.03;5.37;;;;;;;;;;4978498;28;20548;-75
2022/12/24 07:14:55;;;;;;;8.33;6.60;;;;;;;;;;4979287;28;20462;-74
2022/12/24 07:17:43;;;;;;;6.53;4.93;;;;;;;;;;4963362;28;20466;-75
2022/12/24 07:20:37;;;;;;;5.93;4.70;;;;;;;;;;4972430;28;20572;-75
2022/12/24 07:23:32;;;;;;;6.30;4.80;;;;;;;;;;4966332;28;20450;-75
2022/12/24 07:26:20;;;;;;;4.97;4.17;;;;;;;;;;4967759;28;20455;-75
2022/12/24 07:29:09;;;;;;;6.37;4.93;;;;;;;;;;4971975;28;20496;-75
2022/12/24 07:31:59;;;;;;;7.93;5.00;;;;;;;;;;4973131;28;20462;-75
2022/12/24 07:34:50;;;;;;;5.30;4.67;;;;;;;;;;4957396;28;20999;-75
2022/12/24 07:37:40;;;;;;;5.83;4.30;;;;;;;;;;4969855;28;20446;-75
2022/12/24 07:40:36;;;;;;;5.53;4.20;;;;;;;;;;4976524;28;20614;-75
2022/12/24 07:43:26;;;;;;;5.77;4.47;;;;;;;;;;4972773;28;20462;-75
2022/12/24 07:46:19;;;;;;;5.20;4.37;;;;;;;;;;4972692;28;20450;-74
2022/12/24 07:49:08;;;;;;;5.90;4.60;;;;;;;;;;4980554;28;20486;-75
2022/12/24 07:52:04;;;;;;;6.30;4.20;;;;;;;;;;4970783;28;20462;-74
2022/12/24 07:54:53;;;;;;;6.83;4.37;;;;;;;;;;4966406;28;20967;-74
2022/12/24 07:57:47;;;;;;;4.90;4.20;;;;;;;;;;4970642;28;20451;-75
2022/12/24 08:00:38;;;;;;;5.60;4.43;;;;;;;;;;4963177;28;20868;-75
2022/12/24 08:03:26;;;;;;;5.17;4.60;;;;;;;;;;4960306;28;20458;-75
2022/12/24 08:06:15;;;;;;;5.00;4.23;;;;;;;;;;4957816;28;20481;-74
2022/12/24 08:09:04;;;;;;;5.20;4.20;;;;;;;;;;4968294;28;20954;-75
2022/12/24 08:11:53;;;;;;;4.83;4.00;;;;;;;;;;4972040;28;20455;-75
2022/12/24 08:14:43;;;;;;;5.40;4.20;;;;;;;;;;4968027;28;20458;-75
2022/12/24 08:17:31;;;;;;;6.80;4.83;;;;;;;;;;4961855;28;20464;-75
2022/12/24 08:20:20;;;;;;;5.93;4.27;;;;;;;;;;4967753;28;20482;-75
2022/12/24 08:23:09;;;;;;;5.50;4.00;;;;;;;;;;4971580;28;20454;-75
2022/12/24 08:25:57;;;;;;;4.83;4.33;;;;;;;;;;4965731;28;20446;-75
2022/12/24 08:28:46;;;;;;;6.20;4.23;;;;;;;;;;4971741;28;20557;-75
2022/12/24 08:31:36;;;;;;;5.60;4.30;;;;;;;;;;4970357;28;20474;-75
2022/12/24 08:34:24;;;;;;;5.17;4.00;;;;;;;;;;4968105;28;20461;-76
2022/12/24 08:37:13;;;;;;;6.77;4.70;;;;;;;;;;4971879;28;20462;-75
2022/12/24 08:40:01;;;;;;;4.73;4.03;;;;;;;;;;4967697;28;20562;-75
2022/12/24 08:42:50;;;;;;;5.30;4.00;;;;;;;;;;4956928;28;21361;-74
2022/12/24 08:45:39;;;;;;;5.97;4.63;;;;;;;;;;4967619;28;20454;-74
2022/12/24 08:48:30;;;;;;;4.37;3.63;;;;;;;;;;4966766;28;20473;-73
2022/12/24 08:51:21;;;;;;;6.10;4.70;;;;;;;;;;4966257;28;20475;-76
2022/12/24 08:54:10;;;;;;;5.73;4.60;;;;;;;;;;4965806;28;20439;-74
2022/12/24 08:56:58;;;;;;;5.23;4.60;;;;;;;;;;4970991;28;20447;-73
2022/12/24 08:59:47;;;;;;;7.33;5.53;;;;;;;;;;4965079;28;20493;-73
2022/12/24 09:02:36;;;;;;;5.90;4.50;;;;;;;;;;4966992;28;20475;-73
2022/12/24 09:05:26;;;;;;;5.97;4.57;;;;;;;;;;4968625;28;20455;-74
2022/12/24 09:08:14;;;;;;;5.00;4.50;;;;;;;;;;4968032;28;20492;-74
2022/12/24 09:11:04;;;;;;;4.77;4.20;;;;;;;;;;4981546;28;20477;-73
2022/12/24 09:13:52;;;;;;;5.60;4.37;;;;;;;;;;4966304;28;20549;-73
2022/12/24 09:16:41;;;;;;;6.33;4.17;;;;;;;;;;4969140;28;20455;-73
2022/12/24 09:19:30;;;;;;;4.93;4.33;;;;;;;;;;4963090;28;20474;-73
2022/12/24 09:22:20;;;;;;;6.37;4.73;;;;;;;;;;4963310;28;21213;-75
2022/12/24 09:25:09;;;;;;;6.17;4.80;;;;;;;;;;4970288;28;20442;-75
2022/12/24 09:27:58;;;;;;;5.00;4.50;;;;;;;;;;4967468;28;21050;-75
2022/12/24 09:30:46;;;;;;;4.77;4.20;;;;;;;;;;4966082;28;20488;-75
2022/12/24 09:33:35;;;;;;;5.53;4.43;;;;;;;;;;4968539;28;20462;-76
2022/12/24 09:36:24;;;;;;;4.90;4.40;;;;;;;;;;4969448;28;20467;-75
2022/12/24 09:39:14;;;;;;;5.97;4.80;;;;;;;;;;4966279;28;20474;-73
2022/12/24 09:42:08;;;;;;;5.50;5.00;;;;;;;;;;4955535;28;20494;-73
2022/12/24 09:44:59;;;;;;;5.57;4.23;;;;;;;;;;4969593;28;20458;-73
2022/12/24 09:47:50;;;;;;;5.93;5.07;;;;;;;;;;4958151;28;20443;-74
2022/12/24 09:50:41;;;;;;;5.00;4.27;;;;;;;;;;4960818;28;20479;-74
2022/12/24 09:53:36;;;;;;;6.10;5.00;;;;;;;;;;4966804;28;20475;-74
2022/12/24 09:56:31;;;;;;;6.07;5.13;;;;;;;;;;4967950;28;20459;-74
2022/12/24 09:59:22;;;;;;;6.87;5.17;;;;;;;;;;4968107;28;20478;-74
2022/12/24 10:02:14;;;;;;;6.53;5.50;;;;;;;;;;4969372;28;20841;-74
2022/12/24 10:05:03;;;;;;;6.47;5.00;;;;;;;;;;4969477;28;20473;-74
2022/12/24 10:07:55;;;;;;;6.10;5.50;;;;;;;;;;4970113;28;20458;-74
2022/12/24 10:10:50;;;;;;;6.83;5.60;;;;;;;;;;4969016;28;20469;-74
2022/12/24 10:13:44;;;;;;;8.13;5.10;;;;;;;;;;4973610;28;20454;-74
2022/12/24 10:16:38;;;;;;;5.87;5.10;;;;;;;;;;4970383;28;20975;-74
2022/12/24 10:19:33;;;;;;;5.83;4.73;;;;;;;;;;4964507;28;21324;-74
2022/12/24 10:22:26;;;;;;;5.20;4.70;;;;;;;;;;4966457;28;20470;-74
2022/12/24 10:25:18;;;;;;;6.90;4.83;;;;;;;;;;4969284;28;20970;-75
2022/12/24 10:28:13;;;;;;;5.90;5.13;;;;;;;;;;4968976;28;20602;-74
2022/12/24 10:31:04;;;;;;;7.10;5.30;;;;;;;;;;4965879;28;20490;-74
2022/12/24 10:33:56;;;;;;;6.13;5.20;;;;;;;;;;4962444;28;20446;-74
2022/12/24 10:36:45;;;;;;;6.80;5.57;;;;;;;;;;4970415;28;20540;-74
2022/12/24 10:39:33;;;;;;;6.70;5.67;;;;;;;;;;4960302;28;20482;-74
2022/12/24 10:42:23;;;;;;;6.63;5.27;;;;;;;;;;4961408;28;21137;-74
2022/12/24 10:45:15;;;;;;;7.27;5.77;;;;;;;;;;4958514;28;20467;-73
2022/12/24 10:48:08;;;;;;;8.87;6.60;;;;;;;;;;4966309;28;20475;-74
2022/12/24 10:50:59;;;;;;;7.87;6.53;;;;;;;;;;4962492;28;20970;-74
2022/12/24 10:53:49;;;;;;;7.20;6.30;;;;;;;;;;4969105;28;20439;-74
2022/12/24 10:56:41;;;;;;;7.80;5.83;;;;;;;;;;4960888;28;20450;-74
2022/12/24 10:59:31;;;;;;;7.40;6.57;;;;;;;;;;4965845;28;20561;-74
2022/12/24 11:02:27;;;;;;;7.03;6.33;;;;;;;;;;4964945;28;20487;-74
2022/12/24 11:05:31;;;;;;;7.23;6.50;;;;;;;;;;4967040;28;20542;-74
2022/12/24 11:08:20;;;;;;;11.57;9.70;;;;;;;;;;4967539;28;20486;-76
2022/12/24 11:11:09;;;;;;;8.93;8.03;;;;;;;;;;4973071;28;20486;-74
2022/12/24 11:13:58;;;;;;;8.80;7.70;;;;;;;;;;4968079;28;20451;-74
2022/12/24 11:16:52;;;;;;;8.30;7.50;;;;;;;;;;4966863;28;20954;-74
2022/12/24 11:19:41;;;;;;;10.10;8.50;;;;;;;;;;4960305;28;20466;-74
2022/12/24 11:22:32;;;;;;;9.13;7.73;;;;;;;;;;4964938;28;20477;-74
2022/12/24 11:25:26;;;;;;;8.00;6.77;;;;;;;;;;4966269;28;20837;-76
2022/12/24 11:28:20;;;;;;;9.57;6.90;;;;;;;;;;4966775;28;21107;-74
2022/12/24 11:31:19;;;;;;;9.17;7.60;;;;;;;;;;4971136;28;20869;-75
2022/12/24 11:34:23;;;;;;;7.63;6.33;;;;;;;;;;4970453;28;20494;-74
2022/12/24 11:37:17;;;;;;;9.00;7.20;;;;;;;;;;4961204;28;20473;-74
2022/12/24 11:40:19;;;;;;;8.37;7.03;;;;;;;;;;4962069;28;20490;-74
2022/12/24 11:43:14;;;;;;;8.43;7.57;;;;;;;;;;4963913;28;20467;-74
2022/12/24 11:46:11;;;;;;;8.63;7.53;;;;;;;;;;4964952;28;20487;-74
2022/12/24 11:49:13;;;;;;;9.70;7.90;;;;;;;;;;4970778;28;20838;-74
2022/12/24 11:52:15;;;;;;;10.53;8.00;;;;;;;;;;4967273;28;20470;-74
2022/12/24 11:55:09;;;;;;;9.40;7.70;;;;;;;;;;4969718;28;20473;-74
2022/12/24 11:58:07;;;;;;;8.40;7.30;;;;;;;;;;4971803;28;20513;-74
2022/12/24 12:01:06;;;;;;;9.80;8.40;;;;;;;;;;4974019;28;20482;-74
2022/12/24 12:04:05;;;;;;;9.43;8.43;;;;;;;;;;4960947;28;20862;-74
2022/12/24 12:06:56;;;;;;;7.90;7.10;;;;;;;;;;4968236;28;20515;-74
2022/12/24 12:09:46;;;;;;;8.90;7.30;;;;;;;;;;4964801;28;20902;-74
2022/12/24 12:12:36;;;;;;;8.93;8.00;;;;;;;;;;4971783;28;20853;-74
2022/12/24 12:15:28;;;;;;;8.77;7.57;;;;;;;;;;4972289;28;20465;-73
2022/12/24 12:18:20;;;;;;;9.60;8.10;;;;;;;;;;4963687;28;20462;-74
2022/12/24 12:21:13;;;;;;;10.00;8.00;;;;;;;;;;4971121;28;20974;-74
2022/12/24 12:24:05;;;;;;;10.30;8.13;;;;;;;;;;4968734;28;20994;-74
2022/12/24 12:27:01;;;;;;;9.70;8.30;;;;;;;;;;4966731;28;20829;-74
2022/12/24 12:29:53;;;;;;;9.37;8.13;;;;;;;;;;4965955;28;20475;-74
2022/12/24 12:32:48;;;;;;;11.50;8.47;;;;;;;;;;4971776;28;20451;-74
2022/12/24 12:35:40;;;;;;;9.83;8.33;;;;;;;;;;4964826;28;20543;-73
2022/12/24 12:38:29;;;;;;;10.80;8.07;;;;;;;;;;4972083;28;20486;-74
2022/12/24 12:41:25;;;;;;;11.50;8.93;;;;;;;;;;4968370;28;20573;-76
2022/12/24 12:44:21;;;;;;;10.30;8.63;;;;;;;;;;4969209;28;20506;-75
2022/12/24 12:47:17;;;;;;;11.27;7.97;;;;;;;;;;4970113;28;20976;-74
2022/12/24 12:50:11;;;;;;;12.10;8.63;;;;;;;;;;4961208;28;20493;-74
2022/12/24 12:53:06;;;;;;;11.63;8.37;;;;;;;;;;4971073;28;20466;-74
2022/12/24 12:56:01;;;;;;;10.77;8.40;;;;;;;;;;4957602;28;20455;-74
2022/12/24 12:58:53;;;;;;;10.10;8.40;;;;;;;;;;4970288;28;20857;-73
2022/12/24 13:01:46;;;;;;;12.40;9.57;;;;;;;;;;4960746;28;20865;-73
2022/12/24 13:04:54;;;;;;;10.47;8.97;;;;;;;;;;4969982;28;20902;-74
2022/12/24 13:07:52;;;;;;;12.93;9.57;;;;;;;;;;4980780;23;20459;-75
2022/12/24 13:10:55;;;;;;;10.30;8.87;;;;;;;;;;4971081;28;20465;-74
2022/12/24 13:14:04;;;;;;;10.23;7.73;;;;;;;;;;4981271;28;20453;-74
2022/12/24 13:17:12;;;;;;;12.37;9.70;;;;;;;;;;4971154;28;20453;-74
2022/12/24 13:20:15;;;;;;;11.50;9.30;;;;;;;;;;4955451;28;20475;-74
2022/12/24 13:23:12;;;;;;;11.60;9.50;;;;;;;;;;4958748;28;20457;-74
2022/12/24 13:26:10;;;;;;;12.27;9.20;;;;;;;;;;4959716;28;20459;-74
2022/12/24 13:29:23;;;;;;;10.77;9.13;;;;;;;;;;4953062;28;20871;-74
2022/12/24 13:32:32;;;;;;;14.77;10.37;;;;;;;;;;4958483;28;20465;-74
2022/12/24 13:35:31;;;;;;;10.73;9.10;;;;;;;;;;4958083;28;20837;-74
2022/12/24 13:38:34;;;;;;;16.70;10.53;;;;;;;;;;4942464;28;20487;-74
2022/12/24 13:41:39;;;;;;;12.60;9.30;;;;;;;;;;4947144;29;20452;-74
2022/12/24 13:44:34;;;;;;;12.53;9.50;;;;;;;;;;4952540;29;20486;-74
2022/12/24 13:47:25;;;;;;;12.90;9.97;;;;;;;;;;4947606;28;20452;-74
2022/12/24 13:50:23;;;;;;;12.07;9.73;;;;;;;;;;4942945;29;20546;-74
2022/12/24 13:53:21;;;;;;;12.70;9.03;;;;;;;;;;4951586;29;20833;-74
2022/12/24 13:56:23;;;;;;;14.43;9.90;;;;;;;;;;4951189;29;20456;-73
2022/12/24 13:59:13;;;;;;;11.70;10.00;;;;;;;;;;4949610;28;20874;-74
2022/12/24 14:02:02;;;;;;;12.60;10.40;;;;;;;;;;4951487;29;20458;-74
2022/12/24 14:04:52;;;;;;;13.77;10.40;;;;;;;;;;4945665;29;20479;-74
2022/12/24 14:07:45;;;;;;;12.13;9.70;;;;;;;;;;4954859;28;20474;-74
2022/12/24 14:10:37;;;;;;;14.27;9.47;;;;;;;;;;4952053;29;20463;-74
2022/12/24 14:13:44;;;;;;;16.70;10.67;;;;;;;;;;4952851;29;20467;-74
2022/12/24 14:16:42;;;;;;;13.60;8.30;;;;;;;;;;4937117;28;20990;-74
2022/12/24 14:19:33;;;;;;;13.07;7.80;;;;;;;;;;4949585;28;20480;-74
2022/12/24 14:22:29;;;;;;;20.33;8.97;;;;;;;;;;4943155;28;20452;-74
2022/12/24 14:25:20;;;;;;;15.73;7.33;;;;;;;;;;4935491;28;20524;-74
2022/12/24 14:28:16;;;;;;;13.00;7.10;;;;;;;;;;4954469;28;20480;-74
2022/12/24 14:31:14;;;;;;;18.87;7.40;;;;;;;;;;4946421;28;20451;-74
2022/12/24 14:34:13;;;;;;;13.87;7.10;;;;;;;;;;4943635;28;20681;-73
2022/12/24 14:37:04;;;;;;;13.13;7.33;;;;;;;;;;4948515;29;20471;-73
2022/12/24 14:39:55;;;;;;;14.47;6.57;;;;;;;;;;4943525;28;20538;-74
2022/12/24 14:42:48;;;;;;;19.67;8.87;;;;;;;;;;4947081;28;20463;-74
2022/12/24 14:45:40;;;;;;;12.70;7.30;;;;;;;;;;4940356;29;20484;-74
2022/12/24 14:48:33;;;;;;;17.50;7.40;;;;;;;;;;4949587;28;21074;-74
2022/12/24 14:51:28;;;;;;;14.73;7.00;;;;;;;;;;4947470;28;20542;-74
2022/12/24 14:54:24;;;;;;;18.20;7.67;;;;;;;;;;4949271;29;20454;-74
2022/12/24 14:57:14;;;;;;;17.33;7.17;;;;;;;;;;4945821;29;20462;-74
2022/12/24 15:00:18;;;;;;;16.77;7.60;;;;;;;;;;4952479;28;20478;-74
2022/12/24 15:03:12;;;;;;;11.77;6.17;;;;;;;;;;4949836;29;20556;-74
2022/12/24 15:06:02;;;;;;;19.00;6.90;;;;;;;;;;4951085;28;21082;-74
2022/12/24 15:08:57;;;;;;;13.23;5.93;;;;;;;;;;4950779;28;20566;-74
2022/12/24 15:11:45;;;;;;;10.23;6.63;;;;;;;;;;4945149;29;20444;-74
2022/12/24 15:14:39;;;;;;;13.67;7.20;;;;;;;;;;4951644;29;20534;-74
2022/12/24 15:17:28;;;;;;;18.73;7.93;;;;;;;;;;4955010;29;20999;-74
2022/12/24 15:20:18;;;;;;;14.23;7.50;;;;;;;;;;4954823;29;21006;-74
2022/12/24 15:23:09;;;;;;;10.90;6.60;;;;;;;;;;4942364;29;20471;-74
2022/12/24 15:26:15;;;;;;;13.70;8.17;;;;;;;;;;4953564;29;20475;-74
2022/12/24 15:29:14;;;;;;;11.17;6.40;;;;;;;;;;4953419;28;20475;-74
2022/12/24 15:32:06;;;;;;;14.73;7.83;;;;;;;;;;4948592;29;20447;-74
2022/12/24 15:34:55;;;;;;;12.47;7.63;;;;;;;;;;4951249;29;20452;-74
2022/12/24 15:37:44;;;;;;;12.20;8.10;;;;;;;;;;4951278;28;20988;-74
2022/12/24 15:40:33;;;;;;;17.40;7.80;;;;;;;;;;4954397;29;20455;-74
2022/12/24 15:43:24;;;;;;;15.63;8.33;;;;;;;;;;4954757;29;20466;-74
2022/12/24 15:46:18;;;;;;;10.87;6.87;;;;;;;;;;4941285;29;20495;-74
2022/12/24 15:49:13;;;;;;;22.20;8.70;;;;;;;;;;4950169;28;20503;-74
2022/12/24 15:52:03;;;;;;;11.87;6.83;;;;;;;;;;4950318;29;20471;-74
2022/12/24 15:54:53;;;;;;;22.07;7.90;;;;;;;;;;4953631;29;20456;-74
2022/12/24 15:57:45;;;;;;;18.23;7.20;;;;;;;;;;4951663;28;20463;-74
2022/12/24 16:00:35;;;;;;;16.30;9.43;;;;;;;;;;4952906;29;20830;-74
2022/12/24 16:03:24;;;;;;;21.60;8.20;;;;;;;;;;4950087;29;20453;-73
2022/12/24 16:06:13;;;;;;;15.10;8.03;;;;;;;;;;4950249;29;20822;-74
2022/12/24 16:09:03;;;;;;;15.90;7.80;;;;;;;;;;4952232;28;20490;-74
2022/12/24 16:11:53;;;;;;;18.40;8.50;;;;;;;;;;4952176;29;20455;-74
2022/12/24 16:14:51;;;;;;;13.67;7.53;;;;;;;;;;4950150;29;20940;-74
2022/12/24 16:17:48;;;;;;;21.90;9.30;;;;;;;;;;4949428;28;20452;-74
2022/12/24 16:20:37;;;;;;;13.73;7.63;;;;;;;;;;4943601;29;20455;-74
2022/12/24 16:23:27;;;;;;;24.90;8.60;;;;;;;;;;4951829;29;20456;-73
2022/12/24 16:26:16;;;;;;;15.50;7.60;;;;;;;;;;4949711;29;20474;-74
2022/12/24 16:29:04;;;;;;;11.33;7.53;;;;;;;;;;4952957;28;20486;-74
2022/12/24 16:31:55;;;;;;;19.37;8.50;;;;;;;;;;4952848;29;20876;-74
2022/12/24 16:34:45;;;;;;;17.20;9.00;;;;;;;;;;4948735;29;20575;-74
2022/12/24 16:37:34;;;;;;;17.73;8.73;;;;;;;;;;4956807;28;20455;-74
2022/12/24 16:40:22;;;;;;;18.57;8.77;;;;;;;;;;4953806;29;20456;-74
2022/12/24 16:46:22;;;;;;;11.77;8.60;;;;;;;;;;4956034;29;21016;-74
2022/12/24 16:49:12;;;;;;;15.10;8.40;;;;;;;;;;4951545;28;20478;-74
2022/12/24 16:52:04;;;;;;;17.97;9.03;;;;;;;;;;4947657;29;20990;-74
2022/12/24 16:54:53;;;;;;;17.20;8.47;;;;;;;;;;4947880;29;20446;-74
2022/12/24 16:57:42;;;;;;;13.30;8.27;;;;;;;;;;4947888;28;20460;-74
2022/12/24 17:00:31;;;;;;;15.53;8.23;;;;;;;;;;4949705;29;20460;-74
2022/12/24 17:03:19;;;;;;;14.33;8.27;;;;;;;;;;4952896;29;20943;-74
2022/12/24 17:06:08;;;;;;;16.00;8.03;;;;;;;;;;4944631;28;21003;-74
2022/12/24 17:08:58;;;;;;;16.30;9.13;;;;;;;;;;4944910;29;20537;-74
2022/12/24 17:11:47;;;;;;;15.50;8.47;;;;;;;;;;4942407;28;20463;-74
2022/12/24 17:14:35;;;;;;;16.37;8.40;;;;;;;;;;4946515;28;20447;-74
2022/12/24 17:17:26;;;;;;;15.47;7.43;;;;;;;;;;4953037;29;20463;-74